Time;durP1;ratioP1;P1;durP2;ratioP2;P2;SDS_P1;SDS_P2;PMS_P1;PMS_P2;Temp;Humidity;BMP_temperature;BMP_pressure;BME280_temperature;BME280_humidity;BME280_pressure;Samples;Min_cycle;Max_cycle;Signal;HPM_P1;HPM_P2
2022/08/18 00:00:46;;;;;;;;;14.75;14.50;;;;;21.14;71.84;101056.53;5091079;27;51474;-66
2022/08/18 00:03:11;;;;;;;;;12.25;12.25;;;;;21.02;71.67;101048.72;5111253;27;49330;-70
2022/08/18 00:05:37;;;;;;;;;16.00;16.00;;;;;20.83;71.74;101012.56;5111563;27;49394;-65
2022/08/18 00:08:03;;;;;;;;;14.25;12.75;;;;;21.01;71.61;101057.63;5110891;27;49455;-70
2022/08/18 00:10:29;;;;;;;;;14.75;13.50;;;;;20.86;71.81;101034.78;5110841;27;50135;-65
2022/08/18 00:12:55;;;;;;;;;12.50;11.00;;;;;21.06;72.04;101061.13;5110333;27;49322;-66
2022/08/18 00:15:20;;;;;;;;;16.25;15.00;;;;;20.97;71.80;101058.59;5110837;27;49380;-69
2022/08/18 00:17:46;;;;;;;;;13.00;13.00;;;;;21.01;71.87;101067.44;5104792;27;49640;-66
2022/08/18 00:20:15;;;;;;;;;17.75;15.75;;;;;20.96;72.00;101075.53;5092456;27;50931;-72
2022/08/18 00:22:41;;;;;;;;;16.00;16.00;;;;;20.83;71.76;101049.94;5092751;27;49687;-65
2022/08/18 00:25:09;;;;;;;;;14.00;14.00;;;;;20.89;71.95;101059.63;5092547;27;49834;-66
2022/08/18 00:27:40;;;;;;;;;15.00;15.00;;;;;20.92;72.27;101065.78;5092506;27;49830;-70
2022/08/18 00:30:09;;;;;;;;;14.00;13.00;;;;;20.90;72.24;101067.59;5092368;27;49841;-68
2022/08/18 00:32:38;;;;;;;;;13.25;13.00;;;;;20.87;72.16;101065.00;5092318;27;49621;-72
2022/08/18 00:35:14;;;;;;;;;13.75;13.75;;;;;20.72;72.55;101047.44;5092462;27;49875;-67
2022/08/18 00:37:40;;;;;;;;;16.00;15.25;;;;;20.78;72.59;101059.81;5092504;27;49953;-70
2022/08/18 00:40:08;;;;;;;;;16.25;12.25;;;;;20.80;72.55;101063.34;5091303;27;49922;-65
2022/08/18 00:42:42;;;;;;;;;16.50;13.75;;;;;20.77;72.34;101064.28;5091707;27;49795;-72
2022/08/18 00:45:11;;;;;;;;;15.00;15.00;;;;;20.67;72.47;101059.13;5091168;27;49878;-65
2022/08/18 00:47:36;;;;;;;;;16.25;13.50;;;;;20.73;72.66;101067.00;5092257;27;50061;-65
2022/08/18 00:50:03;;;;;;;;;14.25;13.50;;;;;20.41;73.04;101024.81;5091820;27;50443;-72
2022/08/18 00:52:29;;;;;;;;;17.25;16.25;;;;;20.70;72.87;101075.94;4988061;27;2947121;-67
2022/08/18 00:54:55;;;;;;;;;12.50;12.50;;;;;20.60;72.78;101076.13;5093294;27;49950;-69
2022/08/18 00:57:24;;;;;;;;;16.75;15.50;;;;;20.67;72.65;101075.13;5093489;27;49831;-65
2022/08/18 01:00:02;;;;;;;;;15.00;14.25;;;;;20.64;72.65;101072.47;5074648;27;50571;-69
2022/08/18 01:02:35;;;;;;;;;13.25;12.75;;;;;20.53;73.05;101059.31;5093057;27;49774;-72
2022/08/18 01:05:03;;;;;;;;;15.25;14.25;;;;;20.61;72.77;101085.88;5087244;27;49909;-70
2022/08/18 01:07:34;;;;;;;;;14.25;12.25;;;;;20.39;72.91;101051.50;5093400;27;49827;-70
2022/08/18 01:09:59;;;;;;;;;17.00;14.50;;;;;20.56;72.64;101089.50;5092892;27;50570;-69
2022/08/18 01:12:26;;;;;;;;;11.00;11.00;;;;;20.51;72.57;101083.34;5093140;27;49834;-72
2022/08/18 01:14:53;;;;;;;;;13.75;13.75;;;;;20.28;72.60;101053.44;5092276;27;49698;-69
2022/08/18 01:23:03;;;;;;;;;14.25;14.25;;;;;20.42;72.06;101086.13;5092726;27;49841;-64
2022/08/18 01:28:19;;;;;;;;;16.50;14.50;;;;;20.24;72.23;101063.25;5090208;27;49681;-72
2022/08/18 01:30:48;;;;;;;;;12.25;11.50;;;;;20.37;72.27;101079.97;5091818;27;50385;-68
2022/08/18 01:33:15;;;;;;;;;10.75;10.25;;;;;20.09;72.37;101038.63;5091294;27;49806;-72
2022/08/18 01:35:47;;;;;;;;;14.75;13.50;;;;;20.05;72.28;101042.22;5092344;27;49747;-73
2022/08/18 01:38:12;;;;;;;;;15.25;13.25;;;;;20.33;72.50;101093.34;5092397;27;49747;-73
2022/08/18 01:40:37;;;;;;;;;14.25;12.50;;;;;20.30;72.93;101094.28;5092007;27;49889;-71
2022/08/18 01:43:04;;;;;;;;;9.00;9.00;;;;;20.28;73.01;101094.31;5092315;27;49895;-72
2022/08/18 01:45:32;;;;;;;;;13.75;13.25;;;;;20.19;73.29;101078.44;5074231;27;50166;-73
2022/08/18 01:47:58;;;;;;;;;11.75;11.75;;;;;20.15;73.24;101083.81;5093357;27;50021;-71
2022/08/18 01:50:24;;;;;;;;;16.75;16.75;;;;;20.16;73.12;101093.59;5092116;27;49926;-65
2022/08/18 01:52:52;;;;;;;;;14.00;13.00;;;;;20.16;73.02;101102.47;5091744;27;50005;-72
2022/08/18 01:55:17;;;;;;;;;10.50;10.50;;;;;20.13;72.83;101098.97;5090781;27;49872;-71
2022/08/18 01:57:43;;;;;;;;;12.25;12.25;;;;;19.95;73.15;101078.75;5092336;27;50007;-67
2022/08/18 02:00:11;;;;;;;;;14.50;12.75;;;;;20.06;72.80;101106.16;5091554;27;50475;-72
2022/08/18 02:02:37;;;;;;;;;13.25;13.25;;;;;20.00;73.16;101100.91;5091194;27;50120;-66
2022/08/18 02:05:11;;;;;;;;;14.50;14.00;;;;;20.04;73.17;101109.75;5091712;27;49904;-66
2022/08/18 02:07:37;;;;;;;;;16.50;13.75;;;;;19.92;73.25;101098.34;5091713;27;49732;-70
2022/08/18 02:10:09;;;;;;;;;14.25;12.25;;;;;19.96;73.38;101112.50;5091738;27;50117;-69
2022/08/18 02:12:34;;;;;;;;;13.00;10.75;;;;;19.78;73.64;101088.72;5091912;27;49942;-71
2022/08/18 02:15:00;;;;;;;;;14.75;12.50;;;;;19.82;73.87;101098.47;5091531;27;50350;-72
2022/08/18 02:17:25;;;;;;;;;17.00;14.25;;;;;19.91;73.93;101111.69;5091757;27;49964;-68
2022/08/18 02:19:51;;;;;;;;;16.75;14.50;;;;;19.56;73.74;101056.16;5091198;27;56695;-65
2022/08/18 02:22:18;;;;;;;;;14.00;12.75;;;;;19.89;73.87;101118.81;5092148;27;49797;-72
2022/08/18 02:24:45;;;;;;;;;13.25;13.25;;;;;19.82;73.96;101112.66;5091773;27;49711;-72
2022/08/18 02:27:13;;;;;;;;;13.75;13.00;;;;;19.85;73.93;101119.75;5091579;27;49937;-70
2022/08/18 02:29:38;;;;;;;;;16.00;14.50;;;;;19.84;73.87;101118.84;5084417;27;49980;-70
2022/08/18 02:32:04;;;;;;;;;12.75;12.50;;;;;19.69;73.94;101092.41;5091371;27;49849;-70
2022/08/18 02:34:30;;;;;;;;;13.75;13.25;;;;;19.83;73.88;101117.09;5091410;27;49872;-72
2022/08/18 02:36:55;;;;;;;;;15.75;13.75;;;;;19.72;73.85;101097.69;5091028;27;50034;-70
2022/08/18 02:39:20;;;;;;;;;12.00;12.00;;;;;19.59;73.89;101083.66;5091241;27;49731;-66
2022/08/18 02:41:46;;;;;;;;;15.50;14.00;;;;;19.62;73.66;101074.72;5091290;27;49794;-68
2022/08/18 02:44:11;;;;;;;;;11.25;10.75;;;;;19.71;73.65;101094.16;5103500;27;49291;-67
2022/08/18 02:46:37;;;;;;;;;10.75;10.25;;;;;19.58;73.59;101073.88;5107269;27;49200;-74
2022/08/18 02:49:04;;;;;;;;;8.00;8.00;;;;;19.72;73.70;101100.34;5106511;27;50090;-72
2022/08/18 02:51:30;;;;;;;;;11.75;10.50;;;;;19.61;73.48;101091.63;5107018;27;49550;-67
2022/08/18 02:53:59;;;;;;;;;16.00;13.50;;;;;19.69;73.48;101103.94;5107716;27;49956;-71
2022/08/18 02:56:29;;;;;;;;;9.00;9.00;;;;;19.66;73.49;101098.63;5108234;27;49801;-69
2022/08/18 02:58:58;;;;;;;;;11.75;11.75;;;;;19.62;73.59;101096.91;5107444;27;49691;-70
2022/08/18 03:01:36;;;;;;;;;13.00;13.00;;;;;19.50;73.44;101077.50;5105574;27;50215;-65
2022/08/18 03:04:02;;;;;;;;;10.75;10.75;;;;;19.49;73.20;101073.94;5107797;27;49577;-69
2022/08/18 03:06:27;;;;;;;;;11.25;11.25;;;;;19.59;73.35;101088.06;5100540;27;49670;-69
2022/08/18 03:08:54;;;;;;;;;13.50;11.25;;;;;19.53;73.30;101072.13;5105851;27;50131;-72
2022/08/18 03:11:24;;;;;;;;;11.00;9.00;;;;;19.43;73.35;101064.25;5106808;27;49443;-71
2022/08/18 03:13:49;;;;;;;;;14.25;13.25;;;;;19.54;73.42;101077.44;5106884;27;49819;-72
2022/08/18 03:16:16;;;;;;;;;9.50;9.50;;;;;19.53;73.56;101093.44;5106116;27;49970;-72
2022/08/18 03:18:42;;;;;;;;;9.50;9.50;;;;;19.22;73.33;101042.31;5105532;27;50552;-72
2022/08/18 03:21:09;;;;;;;;;9.50;8.75;;;;;19.42;73.58;101080.25;5106617;27;49477;-70
2022/08/18 03:23:35;;;;;;;;;15.25;14.00;;;;;19.35;73.38;101060.78;5105995;27;49467;-67
2022/08/18 03:26:01;;;;;;;;;13.75;13.25;;;;;19.42;73.35;101075.78;5106127;27;49753;-65
2022/08/18 03:28:27;;;;;;;;;13.50;12.00;;;;;19.44;73.39;101083.75;5106067;27;49876;-65
2022/08/18 03:30:53;;;;;;;;;13.50;12.25;;;;;19.32;73.00;101066.16;5105393;27;49510;-68
2022/08/18 03:33:19;;;;;;;;;13.00;9.25;;;;;19.43;73.03;101082.88;5106605;27;49544;-65
2022/08/18 03:35:44;;;;;;;;;10.00;10.00;;;;;19.19;72.96;101037.88;5106743;27;49667;-65
2022/08/18 03:38:09;;;;;;;;;9.00;9.00;;;;;19.15;72.84;101031.72;5106417;27;49781;-65
2022/08/18 03:40:36;;;;;;;;;13.75;12.25;;;;;19.18;72.92;101038.78;5105828;27;49419;-68
2022/08/18 03:43:06;;;;;;;;;10.75;10.75;;;;;19.35;72.70;101078.53;5106109;27;49628;-65
2022/08/18 03:45:33;;;;;;;;;7.00;7.00;;;;;19.20;72.75;101044.06;5104945;27;49810;-72
2022/08/18 03:48:00;;;;;;;;;7.50;7.25;;;;;19.32;72.88;101074.13;5101117;27;50013;-72
2022/08/18 03:50:27;;;;;;;;;11.25;11.00;;;;;19.27;73.00;101067.97;5105527;27;49467;-65
2022/08/18 03:52:54;;;;;;;;;11.00;10.25;;;;;19.26;72.84;101060.00;5105420;27;49565;-72
2022/08/18 03:55:20;;;;;;;;;8.75;7.00;;;;;19.17;73.00;101060.97;5105642;27;49435;-67
2022/08/18 03:57:45;;;;;;;;;10.25;10.25;;;;;19.23;72.93;101060.03;5087211;27;50907;-68
2022/08/18 04:00:12;;;;;;;;;10.00;10.00;;;;;19.21;72.88;101072.47;5104457;27;49522;-65
2022/08/18 04:02:38;;;;;;;;;11.50;10.50;;;;;19.27;73.02;101086.59;5091623;27;49315;-71
2022/08/18 04:05:05;;;;;;;;;10.25;9.25;;;;;19.22;73.29;101088.44;5105971;27;49597;-65
2022/08/18 04:07:30;;;;;;;;;8.50;8.50;;;;;19.13;72.78;101075.22;5105662;27;49559;-65
2022/08/18 04:09:55;;;;;;;;;12.25;11.00;;;;;19.25;72.95;101090.16;5105131;27;49480;-65
2022/08/18 04:12:21;;;;;;;;;10.00;8.50;;;;;19.22;72.79;101084.88;5107187;27;49416;-72
2022/08/18 04:14:48;;;;;;;;;10.50;8.25;;;;;19.12;73.19;101062.81;5105637;27;49757;-66
2022/08/18 04:17:13;;;;;;;;;9.00;9.00;;;;;18.74;73.11;100997.53;5105482;27;50147;-71
2022/08/18 04:19:39;;;;;;;;;9.25;9.25;;;;;19.21;73.20;101078.69;5109312;27;49303;-75
2022/08/18 04:22:04;;;;;;;;;11.50;10.75;;;;;19.21;73.21;101080.47;5108756;27;53375;-72
2022/08/18 04:24:31;;;;;;;;;12.00;11.50;;;;;19.17;73.20;101083.13;5108531;27;49497;-74
2022/08/18 04:26:59;;;;;;;;;11.50;10.25;;;;;19.21;73.11;101083.13;5109677;27;49380;-71
2022/08/18 04:29:25;;;;;;;;;12.50;10.50;;;;;19.20;73.09;101084.00;5109131;27;49668;-68
2022/08/18 04:31:50;;;;;;;;;9.00;8.25;;;;;19.17;73.03;101080.47;5108805;27;49442;-65
2022/08/18 04:34:17;;;;;;;;;11.25;10.00;;;;;19.17;73.07;101077.81;5108747;27;49382;-67
2022/08/18 04:36:43;;;;;;;;;13.75;12.50;;;;;19.15;72.84;101082.28;5108752;27;50067;-73
2022/08/18 04:39:10;;;;;;;;;8.75;8.00;;;;;19.13;73.14;101086.72;5109111;27;49361;-65
2022/08/18 04:41:37;;;;;;;;;11.50;10.25;;;;;19.13;72.87;101080.53;5108312;27;49577;-72
2022/08/18 04:44:06;;;;;;;;;11.50;9.00;;;;;19.11;73.00;101077.88;5109463;27;49418;-69
2022/08/18 04:46:42;;;;;;;;;13.00;12.00;;;;;19.10;72.98;101080.53;5108472;27;49393;-69
2022/08/18 04:49:10;;;;;;;;;9.50;7.75;;;;;19.09;72.97;101081.44;5107836;27;49428;-66
2022/08/18 04:51:41;;;;;;;;;10.75;10.50;;;;;19.08;72.76;101090.31;5109043;27;49346;-70
2022/08/18 04:54:06;;;;;;;;;11.75;10.00;;;;;19.04;73.07;101088.59;5108157;27;49558;-67
2022/08/18 04:56:36;;;;;;;;;11.25;11.25;;;;;19.08;72.80;101098.31;5108170;27;50013;-73
2022/08/18 04:59:08;;;;;;;;;13.25;13.25;;;;;19.08;72.77;101108.94;5108897;27;49480;-71
2022/08/18 05:01:39;;;;;;;;;7.50;7.50;;;;;19.07;72.73;101116.03;5108034;27;49431;-66
2022/08/18 05:04:05;;;;;;;;;9.50;9.50;;;;;18.74;72.78;101076.44;5108435;27;49395;-71
2022/08/18 05:06:30;;;;;;;;;10.50;8.75;;;;;19.05;73.10;101131.16;5103677;27;50316;-68
2022/08/18 05:08:58;;;;;;;;;9.75;9.75;;;;;19.02;72.89;101132.97;5107502;27;49756;-71
2022/08/18 05:11:32;;;;;;;;;7.75;7.75;;;;;18.97;72.96;101125.00;5089415;27;49557;-72
2022/08/18 05:13:58;;;;;;;;;15.00;12.25;;;;;18.99;72.99;101135.63;5109625;27;49739;-64
2022/08/18 05:16:25;;;;;;;;;15.50;11.50;;;;;18.74;72.78;101097.72;5107125;27;49512;-65
2022/08/18 05:18:52;;;;;;;;;10.25;10.25;;;;;18.97;72.62;101145.41;5088456;27;49591;-65
2022/08/18 05:21:18;;;;;;;;;10.50;10.00;;;;;18.95;73.07;101145.41;5107656;27;49632;-66
2022/08/18 05:23:47;;;;;;;;;9.25;8.00;;;;;18.97;72.75;101148.06;5108885;27;49518;-70
2022/08/18 05:26:14;;;;;;;;;12.75;11.50;;;;;18.98;72.92;101150.72;5109598;27;49459;-65
2022/08/18 05:28:41;;;;;;;;;9.50;9.00;;;;;19.00;72.88;101153.34;5108256;27;49458;-66
2022/08/18 05:31:11;;;;;;;;;10.50;10.50;;;;;18.97;73.07;101146.28;5106348;27;49593;-65
2022/08/18 05:33:41;;;;;;;;;9.75;9.75;;;;;19.01;72.91;101149.78;5107908;27;49249;-65
2022/08/18 05:36:25;;;;;;;;;11.00;11.00;;;;;18.98;72.79;101156.03;5107672;27;50702;-64
2022/08/18 05:39:05;;;;;;;;;10.25;9.75;;;;;19.00;72.74;101151.56;5107391;27;49483;-72
2022/08/18 05:41:36;;;;;;;;;14.50;12.75;;;;;18.82;72.91;101131.34;5107819;27;49918;-68
2022/08/18 05:44:02;;;;;;;;;13.25;12.50;;;;;19.00;72.96;101145.38;5108364;27;49284;-66
2022/08/18 05:46:45;;;;;;;;;13.25;11.00;;;;;19.03;72.95;101156.00;5110137;27;50383;-71
2022/08/18 05:49:12;;;;;;;;;12.00;12.00;;;;;19.06;72.89;101163.97;5109383;27;49715;-68
2022/08/18 05:51:49;;;;;;;;;11.50;9.75;;;;;18.99;72.84;101130.31;5109741;27;49620;-68
2022/08/18 05:57:08;;;;;;;;;11.25;11.25;;;;;19.09;72.81;101147.97;5102587;27;49748;-65
2022/08/18 05:59:37;;;;;;;;;15.50;13.00;;;;;19.08;72.55;101141.75;5107209;27;49648;-66
2022/08/18 06:02:46;;;;;;;;;14.00;13.25;;;;;19.23;72.75;101158.50;5106683;27;49609;-70
2022/08/18 06:05:19;;;;;;;;;14.50;14.50;;;;;18.94;72.52;101102.88;5107419;27;49322;-72
2022/08/18 06:07:57;;;;;;;;;12.25;12.25;;;;;19.33;72.75;101165.53;5103123;27;50340;-69
2022/08/18 06:10:24;;;;;;;;;12.50;12.50;;;;;19.25;72.54;101141.63;5106192;27;49542;-72
2022/08/18 06:12:52;;;;;;;;;14.50;14.50;;;;;19.29;72.40;101138.03;5106167;27;49773;-65
2022/08/18 06:15:51;;;;;;;;;16.50;15.50;;;;;19.48;72.45;101162.69;5103046;27;49809;-73
2022/08/18 06:18:28;;;;;;;;;16.75;14.75;;;;;19.54;72.35;101161.78;5104254;27;49676;-67
2022/08/18 06:21:02;;;;;;;;;16.75;16.25;;;;;19.57;72.24;101151.13;5108677;27;50166;-74
2022/08/18 06:23:33;;;;;;;;;20.50;18.75;;;;;19.58;72.69;101147.53;5109722;27;49598;-65
2022/08/18 06:26:33;;;;;;;;;18.75;15.00;;;;;19.67;72.57;101155.44;5107795;27;49663;-70
2022/08/18 06:29:26;;;;;;;;;16.50;16.25;;;;;19.72;72.20;101157.19;5110700;27;49527;-63
2022/08/18 06:32:10;;;;;;;;;19.50;18.50;;;;;19.78;72.26;101155.31;5111114;27;49561;-67
2022/08/18 06:34:50;;;;;;;;;18.75;17.25;;;;;19.80;72.10;101164.22;5114725;27;49184;-69
2022/08/18 06:37:22;;;;;;;;;17.50;16.75;;;;;19.86;72.40;101164.13;5099350;27;49884;-69
2022/08/18 06:39:50;;;;;;;;;23.75;19.25;;;;;19.63;72.46;101113.78;5114625;27;49842;-66
2022/08/18 06:42:25;;;;;;;;;16.25;16.25;;;;;19.65;72.39;101107.53;5099077;27;49439;-66
2022/08/18 06:45:01;;;;;;;;;16.00;15.75;;;;;20.11;71.85;101162.06;5106268;27;49841;-68
2022/08/18 06:47:44;;;;;;;;;20.00;19.00;;;;;20.19;71.94;101166.41;5106276;27;49834;-65
2022/08/18 06:50:19;;;;;;;;;22.50;21.75;;;;;20.24;71.10;101172.56;5105815;27;49994;-74
2022/08/18 06:53:02;;;;;;;;;18.25;15.75;;;;;20.19;70.91;101154.88;5105813;27;49619;-65
2022/08/18 06:55:38;;;;;;;;;23.75;20.00;;;;;20.37;71.07;101169.75;5107183;27;49826;-63
2022/08/18 06:58:21;;;;;;;;;26.25;25.00;;;;;20.43;71.18;101172.34;5108111;27;50131;-65
2022/08/18 07:00:49;;;;;;;;;28.25;25.00;;;;;20.47;70.88;101174.09;5106092;27;49689;-60
2022/08/18 07:03:19;;;;;;;;;22.25;21.75;;;;;20.48;70.74;101170.53;5106038;27;49703;-73
2022/08/18 07:06:20;;;;;;;;;23.50;21.25;;;;;20.53;70.84;101174.00;5093175;27;49932;-65
2022/08/18 07:08:47;;;;;;;;;31.50;27.50;;;;;20.58;70.71;101180.16;5091743;27;49860;-71
2022/08/18 07:11:28;;;;;;;;;26.00;24.75;;;;;20.33;70.91;101168.91;5091877;27;50688;-63
2022/08/18 07:13:57;;;;;;;;;30.00;26.50;;;;;20.41;71.39;101185.69;5100045;27;49818;-65
2022/08/18 07:16:31;;;;;;;;;26.75;24.75;;;;;20.20;71.54;101129.97;5107062;27;49487;-69
2022/08/18 07:19:19;;;;;;;;;28.25;26.75;;;;;20.60;71.28;101182.81;5107007;27;49609;-74
2022/08/18 07:21:59;;;;;;;;;26.25;24.25;;;;;20.67;70.83;101187.16;5105181;27;49598;-73
2022/08/18 07:24:32;;;;;;;;;28.75;27.25;;;;;20.72;70.56;101177.28;5106511;27;49658;-73
2022/08/18 07:27:06;;;;;;;;;29.50;24.25;;;;;20.78;70.71;101179.88;5106466;27;49556;-67
2022/08/18 07:29:35;;;;;;;;;36.50;30.50;;;;;20.92;70.42;101196.56;5107363;27;49404;-67
2022/08/18 07:32:21;;;;;;;;;26.50;23.50;;;;;20.68;70.63;101154.25;5106435;27;50508;-69
2022/08/18 07:34:52;;;;;;;;;28.50;27.00;;;;;21.02;70.52;101189.28;5100490;27;49381;-69
2022/08/18 07:37:23;;;;;;;;;33.25;29.25;;;;;20.77;69.84;101141.66;5106264;27;49643;-76
2022/08/18 07:39:54;;;;;;;;;30.00;27.50;;;;;21.14;69.99;101190.00;5106696;27;49844;-70
2022/08/18 07:42:47;;;;;;;;;41.50;34.50;;;;;21.18;69.61;101190.81;5106154;27;49652;-84
2022/08/18 07:45:34;;;;;;;;;36.75;30.25;;;;;21.13;69.55;101176.66;5106756;27;49145;-73
2022/08/18 07:48:20;;;;;;;;;36.00;31.00;;;;;21.11;69.15;101159.78;5093766;27;49852;-70
2022/08/18 07:50:54;;;;;;;;;36.75;32.75;;;;;21.37;69.38;101191.44;5069733;27;49781;-66
2022/08/18 07:54:01;;;;;;;;;28.75;28.75;;;;;21.45;68.92;101183.31;5088649;27;50587;-80
2022/08/18 07:56:52;;;;;;;;;30.25;29.00;;;;;21.53;68.92;101195.63;5050326;28;49772;-77
2022/08/18 07:59:36;;;;;;;;;35.25;31.25;;;;;21.60;68.51;101194.59;5050124;28;49725;-75
2022/08/18 08:02:27;;;;;;;;;41.25;33.00;;;;;21.38;68.63;101147.81;5083597;27;49896;-78
2022/08/18 08:05:14;;;;;;;;;37.00;32.50;;;;;21.44;68.68;101150.38;5093452;27;50283;-70
2022/08/18 08:07:58;;;;;;;;;40.25;33.25;;;;;21.73;68.30;101181.91;5091866;27;49970;-65
2022/08/18 08:10:35;;;;;;;;;36.50;32.50;;;;;21.73;68.02;101183.69;5091808;27;49783;-68
2022/08/18 08:13:22;;;;;;;;;32.75;30.25;;;;;21.80;67.93;101182.66;5092186;27;49883;-65
2022/08/18 08:16:19;;;;;;;;;36.75;31.50;;;;;21.81;67.60;101163.03;5091500;27;51142;-75
2022/08/18 08:18:51;;;;;;;;;34.00;30.00;;;;;21.88;67.59;101157.53;5077315;27;49959;-76
2022/08/18 08:21:19;;;;;;;;;31.75;30.25;;;;;22.04;66.91;101174.16;5093208;27;49862;-68
2022/08/18 08:24:02;;;;;;;;;34.50;31.50;;;;;21.99;67.24;101165.34;5093849;27;49766;-66
2022/08/18 08:26:51;;;;;;;;;34.25;32.25;;;;;22.08;67.15;101167.88;5074789;27;51834;-68
2022/08/18 08:29:48;;;;;;;;;29.50;29.00;;;;;22.18;66.89;101165.88;5093238;27;49697;-75
2022/08/18 08:32:38;;;;;;;;;36.00;32.75;;;;;22.26;66.46;101170.16;5090205;27;50160;-77
2022/08/18 08:35:13;;;;;;;;;33.75;29.25;;;;;22.26;65.81;101154.13;5090515;27;49900;-71
2022/08/18 08:37:47;;;;;;;;;32.50;29.75;;;;;22.38;65.88;101168.16;5074708;27;49797;-73
2022/08/18 08:40:24;;;;;;;;;33.00;28.50;;;;;22.45;65.56;101159.09;5092483;27;49997;-75
2022/08/18 08:43:11;;;;;;;;;32.25;28.25;;;;;22.56;65.74;101173.09;5093097;27;49762;-68
2022/08/18 08:45:43;;;;;;;;;31.00;28.75;;;;;22.53;65.12;101151.78;5074955;27;49882;-81
2022/08/18 08:48:19;;;;;;;;;34.00;30.00;;;;;22.49;65.54;101139.38;5074687;27;52013;-71
2022/08/18 08:50:57;;;;;;;;;24.75;24.25;;;;;22.79;65.20;101169.91;5093116;27;49896;-68
2022/08/18 08:53:31;;;;;;;;;20.25;17.50;;;;;22.83;64.89;101171.59;5092931;27;50311;-74
2022/08/18 08:56:02;;;;;;;;;27.50;24.50;;;;;22.84;64.96;101168.03;5093559;27;50144;-73
2022/08/18 08:58:36;;;;;;;;;32.75;29.00;;;;;22.95;64.48;101170.47;5092868;27;50785;-63
2022/08/18 09:01:03;;;;;;;;;31.00;29.50;;;;;22.90;64.40;101150.97;5092355;27;49944;-65
2022/08/18 09:03:48;;;;;;;;;30.25;29.25;;;;;23.13;64.20;101173.56;5092812;27;49850;-63
2022/08/18 09:06:32;;;;;;;;;26.00;26.00;;;;;23.22;64.17;101174.28;5093136;27;49778;-63
2022/08/18 09:09:19;;;;;;;;;34.25;28.50;;;;;23.28;63.83;101171.44;5092691;27;50581;-65
2022/08/18 09:11:54;;;;;;;;;31.75;27.00;;;;;23.17;63.71;101138.69;5092833;27;49978;-72
2022/08/18 09:14:59;;;;;;;;;28.75;27.00;;;;;23.42;63.89;101172.84;5090249;27;49701;-74
2022/08/18 09:17:50;;;;;;;;;33.75;29.75;;;;;23.55;63.17;101177.91;5079928;27;49859;-68
2022/08/18 09:20:52;;;;;;;;;27.00;27.00;;;;;23.62;62.73;101179.50;5092600;27;50858;-64
2022/08/18 09:23:23;;;;;;;;;29.75;27.50;;;;;23.63;62.58;101170.53;5092674;27;49795;-63
2022/08/18 09:25:52;;;;;;;;;34.75;31.75;;;;;23.54;61.56;101162.72;5092597;27;49648;-65
2022/08/18 09:28:26;;;;;;;;;25.75;25.25;;;;;23.74;62.08;101191.69;5092894;27;50083;-65
2022/08/18 09:31:11;;;;;;;;;26.75;24.50;;;;;23.69;62.19;101190.03;5092112;27;51615;-68
2022/08/18 09:33:42;;;;;;;;;25.50;23.75;;;;;23.85;62.25;101190.53;5092298;27;49862;-66
2022/08/18 09:36:29;;;;;;;;;29.00;26.75;;;;;23.89;60.67;101180.56;5092572;27;50062;-64
2022/08/18 09:42:03;;;;;;;;;25.75;23.75;;;;;24.05;60.92;101195.31;5092032;27;49738;-63
2022/08/18 09:44:46;;;;;;;;;33.75;31.25;;;;;24.03;60.13;101180.19;5091818;27;49798;-73
2022/08/18 09:47:32;;;;;;;;;28.00;27.00;;;;;24.11;59.90;101191.56;5092322;27;49938;-70
2022/08/18 09:50:03;;;;;;;;;32.00;31.25;;;;;24.14;59.96;101175.41;5091832;27;49775;-63
2022/08/18 09:52:31;;;;;;;;;32.25;28.00;;;;;24.19;60.10;101171.66;5091890;27;50926;-73
2022/08/18 09:54:56;;;;;;;;;32.00;28.75;;;;;24.24;60.08;101168.84;5095194;27;49963;-72
2022/08/18 09:57:36;;;;;;;;;27.25;27.00;;;;;24.26;60.11;101167.88;5093583;27;49744;-74
2022/08/18 10:00:01;;;;;;;;;28.50;27.50;;;;;24.39;59.51;101180.97;5100957;27;49731;-72
2022/08/18 10:02:30;;;;;;;;;29.00;27.50;;;;;24.41;59.07;101182.66;5108522;27;50644;-64
2022/08/18 10:05:14;;;;;;;;;28.75;27.50;;;;;24.47;58.67;101176.25;5107570;27;49649;-74
2022/08/18 10:08:00;;;;;;;;;30.50;27.75;;;;;24.20;58.09;101113.53;5104299;27;49325;-64
2022/08/18 10:10:25;;;;;;;;;28.75;27.00;;;;;24.44;57.91;101171.88;5085842;27;49675;-68
2022/08/18 10:13:03;;;;;;;;;32.25;29.00;;;;;24.46;57.81;101164.63;5104717;27;49940;-70
2022/08/18 10:15:34;;;;;;;;;30.00;29.50;;;;;24.55;57.87;101161.69;5106561;27;49510;-69
2022/08/18 10:18:33;;;;;;;;;27.25;23.75;;;;;24.54;57.52;101157.22;5098314;27;49763;-75
2022/08/18 10:21:06;;;;;;;;;30.75;28.75;;;;;24.59;57.16;101151.72;5100186;27;49365;-74
2022/08/18 10:23:40;;;;;;;;;30.75;27.25;;;;;24.63;56.93;101137.28;5102185;27;50524;-67
2022/08/18 10:26:28;;;;;;;;;24.50;23.00;;;;;24.74;56.86;101139.63;5106427;27;49549;-79
2022/08/18 10:28:57;;;;;;;;;19.75;19.50;;;;;24.78;55.56;101144.84;5094696;27;49779;-61
2022/08/18 10:31:24;;;;;;;;;25.25;24.00;;;;;24.71;54.76;101134.38;5090827;27;49901;-68
2022/08/18 10:34:08;;;;;;;;;18.00;18.00;;;;;24.82;55.73;101133.09;5103286;27;50178;-63
2022/08/18 10:36:42;;;;;;;;;19.50;17.75;;;;;24.98;55.81;101128.06;5082244;27;50134;-62
2022/08/18 10:39:18;;;;;;;;;27.50;24.50;;;;;25.10;55.50;101127.72;5088477;27;49573;-73
2022/08/18 10:41:55;;;;;;;;;23.75;20.25;;;;;25.14;55.17;101112.38;5087526;27;50283;-68
2022/08/18 10:44:22;;;;;;;;;19.75;17.75;;;;;25.16;54.71;101098.88;5067287;27;50193;-76
2022/08/18 10:46:49;;;;;;;;;15.75;15.00;;;;;25.28;54.16;101107.38;5106249;27;49579;-68
2022/08/18 10:49:22;;;;;;;;;16.75;14.75;;;;;25.43;52.76;101119.41;5107403;27;49348;-70
2022/08/18 10:52:29;;;;;;;;;16.25;14.25;;;;;25.55;52.54;101118.97;5105983;27;49665;-66
2022/08/18 10:55:13;;;;;;;;;16.50;14.75;;;;;25.73;52.81;101122.88;5093487;27;49289;-67
2022/08/18 10:58:07;;;;;;;;;17.50;14.75;;;;;25.74;50.58;101102.22;5107184;27;49313;-72
2022/08/18 11:00:45;;;;;;;;;21.25;17.25;;;;;25.69;50.98;101070.09;5107793;27;49703;-75
2022/08/18 11:03:30;;;;;;;;;20.00;16.50;;;;;26.06;51.17;101091.16;5109511;27;49484;-70
2022/08/18 11:06:04;;;;;;;;;14.00;14.00;;;;;26.25;50.53;101107.47;5107455;27;51478;-67
2022/08/18 11:08:35;;;;;;;;;22.00;19.75;;;;;26.36;50.46;101115.13;5102188;27;49693;-65
2022/08/18 11:11:08;;;;;;;;;17.50;16.75;;;;;26.30;50.37;101081.25;5109234;27;49480;-65
2022/08/18 11:13:55;;;;;;;;;17.00;16.00;;;;;26.57;49.45;101117.00;5109172;27;49576;-68
2022/08/18 11:16:44;;;;;;;;;18.50;17.25;;;;;26.68;50.31;101119.25;5094758;27;49980;-68
2022/08/18 11:19:13;;;;;;;;;18.00;15.50;;;;;26.73;46.99;101122.63;5091014;27;49803;-65
2022/08/18 11:21:56;;;;;;;;;17.00;14.00;;;;;26.66;45.76;101123.84;5097048;27;49788;-65
2022/08/18 11:24:25;;;;;;;;;13.00;12.25;;;;;26.70;46.43;101104.78;5091894;27;49780;-64
2022/08/18 11:27:15;;;;;;;;;10.75;10.75;;;;;26.80;44.49;101108.84;5102215;27;50585;-66
2022/08/18 11:29:41;;;;;;;;;10.00;10.00;;;;;26.87;44.34;101097.84;5112593;27;49248;-65
2022/08/18 11:32:22;;;;;;;;;11.25;11.00;;;;;26.87;43.66;101089.75;5112361;27;49555;-67
2022/08/18 11:34:52;;;;;;;;;10.00;10.00;;;;;26.82;45.72;101077.34;5104947;27;49889;-70
2022/08/18 11:37:28;;;;;;;;;15.50;13.25;;;;;27.00;46.10;101108.03;5111648;27;49562;-66
2022/08/18 11:39:59;;;;;;;;;12.00;12.00;;;;;26.95;47.05;101114.56;5105279;27;49757;-64
2022/08/18 11:43:08;;;;;;;;;13.75;12.00;;;;;26.59;47.53;101080.13;5081072;27;49811;-64
2022/08/18 11:45:43;;;;;;;;;11.50;11.50;;;;;26.77;47.55;101114.38;5073407;27;49733;-74
2022/08/18 11:48:15;;;;;;;;;12.50;11.25;;;;;26.67;47.62;101107.63;5096461;27;49788;-71
2022/08/18 11:51:00;;;;;;;;;12.75;12.50;;;;;26.56;47.58;101085.63;5096759;27;49628;-73
2022/08/18 11:53:32;;;;;;;;;13.00;12.00;;;;;26.62;47.86;101106.91;5091220;27;49637;-66